Time;durP1;ratioP1;P1;durP2;ratioP2;P2;SDS_P1;SDS_P2;PMS_P1;PMS_P2;Temp;Humidity;BMP_temperature;BMP_pressure;BME280_temperature;BME280_humidity;BME280_pressure;Samples;Min_cycle;Max_cycle;Signal;HPM_P1;HPM_P2
2021/04/24 00:01:40;;;;;;;14.93;7.57;;;5.70;95.10;;;;;;6121783;23;20017;-85
2021/04/24 00:04:06;;;;;;;12.60;7.45;;;5.70;95.20;;;;;;6122163;23;20020;-85
2021/04/24 00:06:32;;;;;;;15.40;8.15;;;5.70;95.10;;;;;;6124678;23;20017;-86
2021/04/24 00:09:00;;;;;;;15.00;7.82;;;5.60;95.30;;;;;;6098286;23;20016;-86
2021/04/24 00:11:27;;;;;;;14.88;7.63;;;5.60;95.10;;;;;;6122677;23;20022;-86
2021/04/24 00:13:53;;;;;;;18.20;7.18;;;5.60;95.00;;;;;;6098324;23;20013;-86
2021/04/24 00:16:19;;;;;;;11.85;7.32;;;5.60;95.40;;;;;;6121671;23;20594;-85
2021/04/24 00:18:46;;;;;;;15.18;7.72;;;5.60;95.30;;;;;;6099628;23;20045;-85
2021/04/24 00:21:12;;;;;;;13.02;7.38;;;5.60;95.20;;;;;;6122801;23;20014;-85
2021/04/24 00:23:38;;;;;;;12.52;7.13;;;5.60;95.30;;;;;;6095542;23;20017;-85
2021/04/24 00:26:04;;;;;;;16.02;6.68;;;5.60;95.20;;;;;;6099208;23;20013;-86
2021/04/24 00:28:30;;;;;;;12.07;6.65;;;5.60;95.10;;;;;;6098978;23;20017;-85
2021/04/24 00:30:56;;;;;;;10.45;6.35;;;5.50;95.20;;;;;;6121627;23;20441;-86
2021/04/24 00:33:22;;;;;;;10.52;6.05;;;5.50;95.10;;;;;;6096995;23;20013;-85
2021/04/24 00:35:48;;;;;;;12.40;6.63;;;5.50;95.10;;;;;;6099078;23;20523;-85
2021/04/24 00:38:14;;;;;;;11.73;6.35;;;5.50;95.10;;;;;;6117113;23;20041;-85
2021/04/24 00:40:39;;;;;;;11.35;6.40;;;5.50;95.10;;;;;;6093836;23;20516;-85
2021/04/24 00:43:05;;;;;;;12.15;6.85;;;5.50;95.30;;;;;;6092729;23;20014;-85
2021/04/24 00:45:32;;;;;;;11.60;6.20;;;5.50;95.20;;;;;;6116586;23;20010;-86
2021/04/24 00:47:59;;;;;;;11.98;6.70;;;5.40;95.40;;;;;;6119210;23;20018;-85
2021/04/24 00:50:31;;;;;;;15.15;6.68;;;5.40;95.20;;;;;;6120225;23;20025;-86
2021/04/24 00:52:57;;;;;;;13.00;6.03;;;5.40;95.60;;;;;;6090809;23;20097;-86
2021/04/24 00:55:23;;;;;;;9.73;5.57;;;5.40;95.40;;;;;;6117893;23;20025;-85
2021/04/24 00:57:50;;;;;;;14.00;6.53;;;5.40;95.50;;;;;;6118746;23;20022;-85
2021/04/24 01:00:18;;;;;;;11.15;6.22;;;5.40;95.30;;;;;;6116875;23;20032;-85
2021/04/24 01:02:43;;;;;;;13.15;6.45;;;5.50;95.30;;;;;;6091554;23;20014;-85
2021/04/24 01:05:15;;;;;;;10.77;5.85;;;5.40;95.40;;;;;;6094787;23;20477;-85
2021/04/24 01:07:43;;;;;;;9.52;6.35;;;5.40;95.30;;;;;;6117353;23;20060;-85
2021/04/24 01:10:11;;;;;;;9.43;5.97;;;5.40;95.20;;;;;;6118535;23;20014;-85
2021/04/24 01:12:38;;;;;;;10.48;6.10;;;5.50;95.10;;;;;;6117731;23;20026;-86
2021/04/24 01:15:05;;;;;;;11.07;6.57;;;5.50;95.00;;;;;;6117457;23;20084;-86
2021/04/24 01:17:31;;;;;;;8.40;6.38;;;5.40;95.10;;;;;;6093507;23;20053;-86
2021/04/24 01:19:57;;;;;;;10.82;6.20;;;5.50;95.10;;;;;;6118322;23;20018;-85
2021/04/24 01:22:23;;;;;;;10.90;6.55;;;5.40;95.10;;;;;;6113788;23;20014;-85
2021/04/24 01:24:49;;;;;;;8.77;5.53;;;5.40;95.20;;;;;;6118543;23;20037;-85
2021/04/24 01:27:15;;;;;;;11.80;6.22;;;5.40;95.20;;;;;;6118165;23;20028;-85
2021/04/24 01:29:42;;;;;;;13.25;6.45;;;5.40;95.30;;;;;;6068267;23;20018;-86
2021/04/24 01:32:08;;;;;;;11.30;6.03;;;5.40;95.10;;;;;;6116926;23;20539;-85
2021/04/24 01:34:34;;;;;;;13.27;6.35;;;5.40;95.30;;;;;;6092550;23;20025;-85
2021/04/24 01:37:01;;;;;;;9.82;6.35;;;5.40;95.40;;;;;;6092716;23;20408;-87
2021/04/24 01:39:29;;;;;;;12.52;7.13;;;5.40;95.40;;;;;;6118942;23;20456;-85
2021/04/24 01:41:55;;;;;;;14.82;6.95;;;5.30;95.50;;;;;;6119255;23;20018;-85
2021/04/24 01:44:22;;;;;;;11.43;6.20;;;5.30;95.60;;;;;;6114682;23;20014;-85
2021/04/24 01:46:48;;;;;;;10.85;6.20;;;5.30;95.60;;;;;;6094315;23;20073;-86
2021/04/24 01:49:14;;;;;;;14.57;7.20;;;5.30;95.60;;;;;;6119192;23;20457;-86
2021/04/24 01:51:40;;;;;;;13.70;7.28;;;5.30;95.50;;;;;;6116820;23;20025;-85
2021/04/24 01:54:07;;;;;;;13.02;6.68;;;5.30;95.70;;;;;;6091421;23;20017;-86
2021/04/24 01:56:51;;;;;;;10.73;6.88;;;5.30;95.60;;;;;;6119358;23;20033;-85
2021/04/24 01:59:19;;;;;;;17.25;8.52;;;5.30;95.60;;;;;;6119434;23;20152;-85
2021/04/24 02:01:48;;;;;;;11.52;6.78;;;5.30;95.70;;;;;;6118988;23;20010;-85
2021/04/24 02:04:18;;;;;;;11.85;7.55;;;5.30;95.60;;;;;;6117303;23;20014;-86
2021/04/24 02:06:44;;;;;;;11.73;6.80;;;5.30;95.60;;;;;;6118983;23;20021;-86
2021/04/24 02:09:11;;;;;;;16.80;6.95;;;5.30;95.60;;;;;;6121884;23;20017;-85
2021/04/24 02:12:04;;;;;;;12.55;6.90;;;5.30;95.90;;;;;;6119610;23;20014;-85
2021/04/24 02:14:53;;;;;;;11.48;6.75;;;5.30;95.80;;;;;;6116396;23;20033;-85
2021/04/24 02:17:25;;;;;;;13.98;7.25;;;5.20;95.90;;;;;;6119727;23;20014;-86
2021/04/24 02:19:53;;;;;;;13.55;7.10;;;5.20;96.10;;;;;;6119426;23;20277;-85
2021/04/24 02:22:20;;;;;;;14.27;7.90;;;5.10;96.40;;;;;;6116732;23;20017;-85
2021/04/24 02:24:47;;;;;;;15.50;6.90;;;5.10;96.20;;;;;;6118442;23;20018;-85
2021/04/24 02:27:13;;;;;;;10.35;6.85;;;5.10;96.10;;;;;;6119960;23;20094;-85
2021/04/24 02:29:44;;;;;;;11.07;6.97;;;5.10;96.10;;;;;;6120397;23;20052;-85
2021/04/24 02:32:11;;;;;;;12.35;6.45;;;5.10;96.10;;;;;;6069751;23;20021;-85
2021/04/24 02:34:46;;;;;;;16.27;6.60;;;5.10;96.10;;;;;;6095026;23;20018;-84
2021/04/24 02:37:14;;;;;;;12.40;6.72;;;5.10;96.10;;;;;;6128724;23;20024;-86
2021/04/24 02:39:42;;;;;;;11.07;6.45;;;5.00;96.10;;;;;;6125688;23;20017;-85
2021/04/24 02:42:12;;;;;;;12.45;5.95;;;5.00;96.00;;;;;;6123799;23;20016;-85
2021/04/24 02:44:39;;;;;;;11.05;6.30;;;5.00;96.10;;;;;;6097502;23;20361;-85
2021/04/24 02:47:05;;;;;;;11.63;6.22;;;5.00;96.20;;;;;;6100834;23;20022;-85
2021/04/24 02:49:31;;;;;;;14.40;6.32;;;5.00;96.10;;;;;;6124154;23;20009;-85
2021/04/24 02:52:00;;;;;;;16.42;6.30;;;5.00;96.20;;;;;;6149862;23;20516;-85
2021/04/24 02:54:26;;;;;;;12.95;6.88;;;5.00;96.40;;;;;;6122884;23;20083;-85
2021/04/24 02:56:52;;;;;;;14.88;6.22;;;4.90;96.30;;;;;;6168475;23;20025;-84
2021/04/24 02:59:19;;;;;;;11.20;5.45;;;5.00;96.30;;;;;;6139636;23;20013;-87
2021/04/24 03:01:46;;;;;;;13.35;5.93;;;4.90;96.20;;;;;;6075878;23;20080;-85
2021/04/24 03:04:13;;;;;;;12.20;6.30;;;5.00;96.20;;;;;;6148689;23;20470;-85
2021/04/24 03:06:40;;;;;;;8.27;5.50;;;5.00;96.10;;;;;;6147970;23;20028;-85
2021/04/24 03:09:05;;;;;;;13.18;6.40;;;5.00;96.20;;;;;;6124158;23;20681;-86
2021/04/24 03:11:33;;;;;;;12.93;6.57;;;5.00;96.20;;;;;;6149713;23;20495;-86
2021/04/24 03:13:59;;;;;;;9.25;6.53;;;5.00;96.20;;;;;;6096623;23;20044;-86
2021/04/24 03:16:25;;;;;;;10.25;6.30;;;5.00;96.20;;;;;;6099600;23;20018;-85
2021/04/24 03:18:53;;;;;;;11.57;6.20;;;5.00;96.60;;;;;;6100084;23;20095;-86
2021/04/24 03:21:24;;;;;;;10.65;6.20;;;5.00;96.20;;;;;;6098864;23;20014;-85
2021/04/24 03:23:51;;;;;;;13.80;6.57;;;5.00;96.40;;;;;;6097819;23;20068;-85
2021/04/24 03:26:17;;;;;;;9.57;6.15;;;5.00;96.20;;;;;;6098390;23;20366;-85
2021/04/24 03:28:43;;;;;;;11.52;6.03;;;5.00;96.20;;;;;;6098873;23;20080;-86
2021/04/24 03:31:10;;;;;;;11.43;6.60;;;5.00;96.40;;;;;;6124321;23;20017;-85
2021/04/24 03:33:36;;;;;;;9.10;5.47;;;5.00;96.50;;;;;;6097758;23;20064;-86
2021/04/24 03:36:02;;;;;;;13.05;7.47;;;5.00;96.40;;;;;;6096506;23;20200;-85
2021/04/24 03:38:28;;;;;;;10.65;7.75;;;5.00;96.60;;;;;;6075909;23;20028;-85
2021/04/24 03:40:54;;;;;;;15.95;6.70;;;5.00;96.60;;;;;;6124196;23;20013;-85
2021/04/24 03:43:20;;;;;;;11.60;5.75;;;5.00;96.80;;;;;;6096529;23;20017;-85
2021/04/24 03:45:46;;;;;;;13.20;6.80;;;5.00;96.60;;;;;;6098601;23;20017;-86
2021/04/24 03:48:12;;;;;;;12.52;6.47;;;5.00;96.60;;;;;;6123807;23;20021;-85
2021/04/24 03:50:38;;;;;;;12.15;6.55;;;5.00;96.40;;;;;;6098263;23;20021;-85
2021/04/24 03:53:04;;;;;;;12.57;6.47;;;5.00;96.40;;;;;;6122510;23;20516;-85
2021/04/24 03:55:30;;;;;;;11.25;6.70;;;5.00;96.60;;;;;;6123359;23;20048;-85
2021/04/24 03:57:56;;;;;;;13.40;6.97;;;5.00;96.30;;;;;;6097737;23;20044;-85
2021/04/24 04:00:27;;;;;;;10.63;6.90;;;5.00;96.40;;;;;;6099303;23;20080;-85
2021/04/24 04:02:59;;;;;;;11.93;7.25;;;5.00;96.40;;;;;;6121729;23;20140;-85
2021/04/24 04:05:30;;;;;;;;;;;5.00;96.60;;;;;;6122536;23;20096;-85
2021/04/24 04:07:57;;;;;;;10.00;6.00;;;5.00;96.60;;;;;;6123135;23;19968;-85
2021/04/24 04:10:23;;;;;;;11.65;6.60;;;4.90;96.60;;;;;;6100461;23;20064;-85
2021/04/24 04:12:50;;;;;;;10.63;6.82;;;4.90;96.60;;;;;;6108653;23;20104;-85
2021/04/24 04:15:17;;;;;;;11.52;6.93;;;4.80;96.60;;;;;;6153482;23;20487;-85
2021/04/24 04:18:12;;;;;;;11.65;6.28;;;4.80;96.60;;;;;;6122438;23;20021;-83
2021/04/24 04:20:44;;;;;;;12.88;6.63;;;4.80;97.10;;;;;;6122365;23;20020;-85
2021/04/24 04:23:10;;;;;;;11.93;6.70;;;4.70;97.00;;;;;;6097596;23;20033;-85
2021/04/24 04:25:37;;;;;;;11.02;6.50;;;4.70;96.90;;;;;;6149080;23;20060;-86
2021/04/24 04:28:04;;;;;;;14.57;7.05;;;4.70;96.90;;;;;;6097492;23;20013;-84
2021/04/24 04:30:31;;;;;;;10.23;6.47;;;4.70;97.00;;;;;;6075023;23;20022;-86
2021/04/24 04:32:57;;;;;;;10.18;6.22;;;4.70;96.90;;;;;;6121771;23;20400;-85
2021/04/24 04:35:25;;;;;;;12.45;7.32;;;4.80;97.30;;;;;;6120665;23;20013;-86
2021/04/24 04:37:51;;;;;;;15.98;7.20;;;4.80;97.00;;;;;;6121534;23;20021;-87
2021/04/24 04:40:17;;;;;;;11.73;6.78;;;4.80;97.10;;;;;;6097766;23;20506;-86
2021/04/24 04:42:44;;;;;;;10.15;6.80;;;4.80;97.40;;;;;;6095315;23;20020;-86
2021/04/24 04:45:11;;;;;;;13.07;6.22;;;4.80;97.00;;;;;;6122421;23;20373;-86
2021/04/24 04:47:37;;;;;;;11.48;7.13;;;4.80;97.00;;;;;;6098429;23;20040;-85
2021/04/24 04:50:06;;;;;;;12.70;6.35;;;4.90;96.90;;;;;;6097011;23;20009;-85
2021/04/24 04:52:32;;;;;;;15.13;7.05;;;4.90;96.90;;;;;;6148131;23;20206;-86
2021/04/24 04:54:58;;;;;;;17.65;6.55;;;4.90;96.90;;;;;;6099222;23;20044;-86
2021/04/24 04:57:24;;;;;;;12.45;6.97;;;4.90;96.90;;;;;;6073425;23;20048;-85
2021/04/24 04:59:50;;;;;;;14.30;8.05;;;5.00;97.00;;;;;;6123410;23;20037;-86
2021/04/24 05:02:15;;;;;;;12.10;6.40;;;5.00;97.10;;;;;;6097396;23;20017;-85
2021/04/24 05:04:41;;;;;;;13.15;7.38;;;5.10;97.10;;;;;;6097654;23;20096;-86
2021/04/24 05:07:07;;;;;;;11.80;6.97;;;5.10;97.10;;;;;;6098498;23;20029;-86
2021/04/24 05:09:32;;;;;;;14.77;7.25;;;5.10;97.10;;;;;;6123760;23;20010;-86
2021/04/24 05:11:58;;;;;;;11.60;7.07;;;5.10;97.20;;;;;;6097841;23;20108;-86
2021/04/24 05:14:24;;;;;;;11.80;7.30;;;5.20;97.20;;;;;;6121307;23;20409;-86
2021/04/24 05:16:50;;;;;;;13.18;6.90;;;5.30;97.30;;;;;;6099986;23;20072;-85
2021/04/24 05:19:16;;;;;;;9.93;6.53;;;5.40;97.20;;;;;;6121655;23;20105;-86
2021/04/24 05:21:42;;;;;;;14.32;6.60;;;5.40;97.20;;;;;;6099027;23;20052;-85
2021/04/24 05:24:09;;;;;;;12.35;7.60;;;5.40;97.20;;;;;;6121065;23;20072;-86
2021/04/24 05:26:34;;;;;;;19.02;8.20;;;5.50;97.30;;;;;;6098382;23;20613;-86
2021/04/24 05:29:00;;;;;;;12.65;6.90;;;5.50;97.40;;;;;;6100462;23;20013;-87
2021/04/24 05:31:26;;;;;;;14.82;7.43;;;5.50;97.20;;;;;;6124457;23;20398;-86
2021/04/24 05:33:53;;;;;;;12.57;7.38;;;5.50;97.10;;;;;;6098124;23;20009;-86
2021/04/24 05:36:20;;;;;;;11.52;6.63;;;5.60;97.20;;;;;;6100741;23;20408;-86
2021/04/24 05:38:48;;;;;;;11.95;7.07;;;5.60;97.20;;;;;;6126319;23;20029;-85
2021/04/24 05:41:20;;;;;;;10.10;6.60;;;5.60;97.10;;;;;;6123622;23;20042;-86
2021/04/24 05:43:45;;;;;;;12.43;6.72;;;5.60;97.40;;;;;;6123566;23;20014;-86
2021/04/24 05:46:11;;;;;;;12.25;7.13;;;5.70;97.10;;;;;;6077529;23;20028;-86
2021/04/24 05:48:37;;;;;;;11.98;7.30;;;5.70;97.20;;;;;;6124453;23;20017;-86
2021/04/24 05:51:03;;;;;;;15.02;7.68;;;5.70;97.10;;;;;;6100403;23;20060;-86
2021/04/24 05:53:29;;;;;;;15.98;7.07;;;5.80;97.00;;;;;;6124224;23;20014;-86
2021/04/24 05:55:55;;;;;;;11.43;6.95;;;5.80;97.00;;;;;;6101946;23;20073;-86
2021/04/24 05:58:20;;;;;;;14.73;7.90;;;5.80;97.10;;;;;;6122714;23;20014;-85
2021/04/24 06:00:46;;;;;;;12.15;7.45;;;5.80;97.10;;;;;;6140304;23;20391;-85
2021/04/24 06:03:12;;;;;;;12.20;7.65;;;5.90;97.30;;;;;;6124206;23;20017;-85
2021/04/24 06:05:38;;;;;;;14.38;8.15;;;6.00;97.10;;;;;;6125332;23;20351;-85
2021/04/24 06:08:04;;;;;;;13.95;7.47;;;6.00;97.20;;;;;;6101297;23;20021;-85
2021/04/24 06:10:30;;;;;;;16.40;7.70;;;6.00;97.30;;;;;;6100023;23;20014;-85
2021/04/24 06:12:55;;;;;;;10.93;7.28;;;6.10;97.10;;;;;;6149219;23;20013;-85
2021/04/24 06:15:23;;;;;;;14.07;8.40;;;6.10;97.10;;;;;;6125290;23;20469;-85
2021/04/24 06:17:49;;;;;;;12.82;7.55;;;6.20;97.00;;;;;;6099462;23;20384;-85
2021/04/24 06:20:15;;;;;;;12.77;7.80;;;6.30;97.20;;;;;;6100728;23;20017;-85
2021/04/24 06:22:42;;;;;;;17.15;8.40;;;6.30;97.10;;;;;;6098936;23;20022;-85
2021/04/24 06:25:10;;;;;;;13.70;7.60;;;6.40;97.00;;;;;;6099423;23;20017;-85
2021/04/24 06:27:36;;;;;;;16.25;7.95;;;6.50;96.90;;;;;;6123468;23;20017;-85
2021/04/24 06:30:05;;;;;;;15.05;7.47;;;6.60;96.80;;;;;;6125349;23;20010;-85
2021/04/24 06:32:31;;;;;;;19.20;8.32;;;6.70;96.90;;;;;;6122376;23;20017;-85
2021/04/24 06:34:56;;;;;;;14.10;7.53;;;6.70;96.60;;;;;;6100504;23;20009;-85
2021/04/24 06:37:22;;;;;;;13.00;6.80;;;6.80;96.60;;;;;;6124634;23;20056;-85
2021/04/24 06:39:48;;;;;;;13.45;7.47;;;6.80;96.50;;;;;;6100088;23;20267;-85
2021/04/24 06:42:15;;;;;;;12.38;6.75;;;6.90;96.40;;;;;;6099250;23;20048;-85
2021/04/24 06:44:44;;;;;;;14.63;7.30;;;7.00;96.30;;;;;;6123835;23;20049;-85
2021/04/24 06:47:11;;;;;;;11.77;6.30;;;7.10;96.30;;;;;;6124478;23;20037;-85
2021/04/24 06:49:36;;;;;;;17.02;7.07;;;7.10;96.20;;;;;;6124501;23;20511;-85
2021/04/24 06:52:02;;;;;;;13.23;6.35;;;7.20;96.10;;;;;;6100949;23;20037;-85
2021/04/24 06:54:28;;;;;;;9.85;5.88;;;7.30;96.00;;;;;;6097587;23;20024;-85
2021/04/24 06:56:54;;;;;;;11.73;5.15;;;7.40;95.50;;;;;;6099468;23;20013;-85
2021/04/24 06:59:20;;;;;;;11.35;4.90;;;7.50;95.70;;;;;;6124711;23;20108;-85
2021/04/24 07:01:46;;;;;;;11.82;5.05;;;7.60;95.20;;;;;;6099789;23;20018;-86
2021/04/24 07:04:12;;;;;;;8.80;4.30;;;7.60;95.00;;;;;;6122988;23;20056;-85
2021/04/24 07:06:37;;;;;;;15.88;5.50;;;7.60;94.50;;;;;;6103401;23;20018;-86
2021/04/24 07:09:04;;;;;;;13.52;4.93;;;7.60;94.50;;;;;;6099731;23;20092;-84
2021/04/24 07:11:29;;;;;;;13.40;5.22;;;7.70;94.50;;;;;;6096772;23;20013;-86
2021/04/24 07:13:55;;;;;;;9.63;4.53;;;7.70;94.30;;;;;;6121929;23;20520;-85
2021/04/24 07:16:21;;;;;;;11.02;4.30;;;7.70;93.70;;;;;;6125161;23;20068;-85
2021/04/24 07:18:47;;;;;;;11.75;4.28;;;7.80;93.80;;;;;;6100057;23;20040;-85
2021/04/24 07:21:13;;;;;;;19.30;4.68;;;7.80;93.50;;;;;;6100964;23;20460;-85
2021/04/24 07:23:40;;;;;;;9.60;4.03;;;7.80;93.20;;;;;;6148544;23;20348;-85
2021/04/24 07:26:08;;;;;;;11.98;5.00;;;7.80;93.20;;;;;;6099933;23;20056;-85
2021/04/24 07:28:34;;;;;;;15.40;5.20;;;7.80;93.40;;;;;;6124700;23;20070;-85
2021/04/24 07:31:00;;;;;;;14.65;5.20;;;7.90;93.60;;;;;;6100549;23;20013;-85
2021/04/24 07:33:26;;;;;;;13.32;5.72;;;8.00;93.60;;;;;;6121542;23;20438;-85
2021/04/24 07:35:53;;;;;;;12.45;4.95;;;8.00;92.80;;;;;;6123753;23;20017;-85
2021/04/24 07:38:19;;;;;;;12.82;4.70;;;8.10;93.10;;;;;;6099571;23;20572;-85
2021/04/24 07:40:46;;;;;;;12.25;4.65;;;8.20;93.30;;;;;;6122981;23;20013;-85
2021/04/24 07:43:12;;;;;;;17.25;6.10;;;8.20;93.40;;;;;;6122005;23;20018;-85
2021/04/24 07:45:38;;;;;;;7.93;4.15;;;8.20;93.30;;;;;;6149903;23;20014;-86
2021/04/24 07:48:05;;;;;;;14.18;4.80;;;8.30;92.60;;;;;;6099552;23;20024;-86
2021/04/24 07:50:32;;;;;;;12.68;4.55;;;8.30;92.30;;;;;;6124924;23;20060;-83
2021/04/24 07:52:58;;;;;;;12.10;5.05;;;8.20;92.10;;;;;;6122165;23;20036;-83
2021/04/24 07:55:24;;;;;;;10.43;4.05;;;8.20;92.40;;;;;;6147230;23;20009;-83
2021/04/24 07:57:50;;;;;;;12.90;4.00;;;8.20;92.00;;;;;;6149673;23;20022;-83
2021/04/24 08:00:17;;;;;;;11.23;4.00;;;8.20;92.40;;;;;;6099122;23;20444;-82
2021/04/24 08:02:42;;;;;;;12.40;3.97;;;8.20;92.30;;;;;;6121640;23;20021;-85
2021/04/24 08:05:09;;;;;;;10.30;3.67;;;8.20;92.30;;;;;;6073783;23;20013;-84
2021/04/24 08:07:34;;;;;;;9.85;3.63;;;8.20;91.90;;;;;;6149797;23;20021;-85
2021/04/24 08:10:00;;;;;;;10.85;3.92;;;8.20;91.80;;;;;;6099123;23;20017;-86
2021/04/24 08:12:26;;;;;;;6.18;3.20;;;8.30;91.40;;;;;;6098213;23;20018;-86
2021/04/24 08:14:55;;;;;;;10.82;3.95;;;8.30;91.80;;;;;;6099531;23;20495;-85
2021/04/24 08:17:21;;;;;;;16.52;4.65;;;8.40;91.60;;;;;;6148219;23;20017;-85
2021/04/24 08:19:47;;;;;;;10.65;3.88;;;8.40;91.10;;;;;;6099549;23;20449;-84
2021/04/24 08:22:13;;;;;;;13.38;3.50;;;8.50;91.00;;;;;;6098100;23;20024;-83
2021/04/24 08:24:40;;;;;;;9.25;3.03;;;8.50;91.40;;;;;;6097720;23;20013;-86
2021/04/24 08:27:06;;;;;;;15.63;3.70;;;8.60;91.60;;;;;;6097731;23;20082;-84
2021/04/24 08:29:32;;;;;;;16.30;4.00;;;8.70;91.40;;;;;;6099755;23;20088;-84
2021/04/24 08:31:58;;;;;;;14.15;3.83;;;8.70;90.90;;;;;;6097768;23;20460;-84
2021/04/24 08:34:26;;;;;;;13.68;4.85;;;8.70;91.20;;;;;;6120080;23;20059;-84
2021/04/24 08:36:53;;;;;;;12.85;4.05;;;8.70;91.30;;;;;;6098772;23;20017;-84
2021/04/24 08:39:19;;;;;;;8.82;3.90;;;8.80;89.80;;;;;;6097544;23;20025;-84
2021/04/24 08:41:46;;;;;;;17.60;4.25;;;8.90;90.60;;;;;;6099406;23;20013;-84
2021/04/24 08:44:17;;;;;;;13.50;3.63;;;9.00;90.80;;;;;;6097483;23;20013;-84
2021/04/24 08:46:47;;;;;;;8.07;3.35;;;9.10;91.00;;;;;;6096876;23;20049;-84
2021/04/24 08:49:19;;;;;;;14.05;4.18;;;9.20;91.20;;;;;;6121182;23;20014;-84
2021/04/24 08:51:45;;;;;;;15.40;4.15;;;9.30;91.20;;;;;;6123839;23;20048;-83
2021/04/24 08:54:11;;;;;;;15.32;4.10;;;9.50;90.80;;;;;;6096268;23;20022;-84
2021/04/24 08:56:37;;;;;;;13.88;4.85;;;9.50;86.00;;;;;;6098835;23;20092;-84
2021/04/24 08:59:03;;;;;;;11.23;3.75;;;9.50;86.00;;;;;;6123474;23;20449;-84
2021/04/24 09:01:29;;;;;;;15.27;4.15;;;9.60;86.50;;;;;;6123387;23;20538;-83
2021/04/24 09:03:55;;;;;;;16.52;4.72;;;9.60;84.80;;;;;;6100243;23;20096;-84
2021/04/24 09:06:22;;;;;;;13.38;4.20;;;9.60;85.70;;;;;;6106164;23;20020;-85
2021/04/24 09:09:00;;;;;;;15.75;4.60;;;9.70;86.20;;;;;;6103383;23;20010;-84
2021/04/24 09:11:27;;;;;;;15.80;4.40;;;9.80;82.60;;;;;;6153374;23;20096;-85
2021/04/24 09:14:03;;;;;;;13.30;3.80;;;9.80;84.80;;;;;;6125141;23;20041;-83
2021/04/24 09:16:30;;;;;;;10.32;3.30;;;9.80;84.80;;;;;;6126150;23;20013;-84
2021/04/24 09:18:57;;;;;;;11.32;3.67;;;9.90;86.20;;;;;;6103445;23;20044;-84
2021/04/24 09:21:25;;;;;;;13.82;3.33;;;9.90;86.80;;;;;;6154025;23;20009;-84
2021/04/24 09:23:51;;;;;;;13.73;3.78;;;10.00;86.60;;;;;;6151611;23;20022;-84
2021/04/24 09:26:21;;;;;;;16.85;3.38;;;10.10;87.00;;;;;;6104541;23;20464;-84
2021/04/24 09:28:51;;;;;;;13.10;4.43;;;10.10;84.40;;;;;;6127283;23;20013;-85
2021/04/24 09:31:22;;;;;;;9.43;3.63;;;10.10;86.70;;;;;;6101553;23;20010;-85
2021/04/24 09:33:55;;;;;;;10.13;3.33;;;10.20;86.50;;;;;;6132638;23;20048;-84
2021/04/24 09:36:22;;;;;;;12.85;3.58;;;10.20;87.00;;;;;;6135054;23;20029;-84
2021/04/24 09:38:52;;;;;;;13.13;3.92;;;10.20;87.10;;;;;;6087129;23;20104;-84
2021/04/24 09:41:20;;;;;;;18.50;4.38;;;10.20;86.80;;;;;;6136977;23;20101;-84
2021/04/24 09:43:58;;;;;;;15.35;4.50;;;10.20;84.20;;;;;;6135425;23;20351;-83
2021/04/24 09:46:46;;;;;;;15.65;3.58;;;10.30;85.80;;;;;;6139145;23;20024;-84
2021/04/24 09:49:30;;;;;;;16.77;4.03;;;10.40;86.40;;;;;;6136767;23;20010;-84
2021/04/24 09:52:02;;;;;;;12.02;3.65;;;10.50;85.90;;;;;;6131017;23;20014;-84
2021/04/24 09:54:37;;;;;;;;;;;10.60;86.30;;;;;;6137578;23;20010;-84
2021/04/24 09:57:03;;;;;;;14.57;3.65;;;10.60;82.20;;;;;;6136866;23;20044;-84
2021/04/24 09:59:30;;;;;;;12.05;3.45;;;10.60;85.40;;;;;;6125153;23;20037;-85
2021/04/24 10:02:07;;;;;;;17.08;3.90;;;10.70;84.40;;;;;;6121943;23;20032;-84
2021/04/24 10:04:33;;;;;;;12.73;3.45;;;10.70;81.00;;;;;;6127197;23;20564;-83
2021/04/24 10:06:59;;;;;;;10.93;3.83;;;10.80;81.20;;;;;;6100880;23;20014;-83
2021/04/24 10:09:28;;;;;;;10.00;2.85;;;10.80;81.80;;;;;;6077955;23;20124;-85
2021/04/24 10:11:59;;;;;;;14.15;3.70;;;10.80;82.30;;;;;;6125961;23;20048;-83
2021/04/24 10:14:41;;;;;;;11.30;3.72;;;10.80;80.00;;;;;;6119034;23;20033;-83
2021/04/24 10:17:12;;;;;;;11.97;3.00;;;10.80;74.90;;;;;;6151869;23;20056;-85
2021/04/24 10:19:39;;;;;;;13.80;3.72;;;10.80;74.20;;;;;;6150667;23;20017;-85
2021/04/24 10:22:07;;;;;;;17.83;4.25;;;10.90;71.70;;;;;;6122932;23;20475;-84
2021/04/24 10:24:34;;;;;;;14.98;4.32;;;11.00;74.60;;;;;;6149666;23;20464;-84
2021/04/24 10:27:01;;;;;;;13.85;3.78;;;11.00;75.60;;;;;;6101578;23;20021;-84
2021/04/24 10:29:27;;;;;;;17.50;3.95;;;11.00;75.90;;;;;;6098282;23;20015;-83
2021/04/24 10:31:54;;;;;;;16.45;4.53;;;11.00;76.40;;;;;;6099253;23;20013;-83
2021/04/24 10:34:20;;;;;;;11.07;3.70;;;11.10;72.60;;;;;;6097782;23;20023;-83
2021/04/24 10:36:47;;;;;;;8.45;3.30;;;11.10;72.80;;;;;;6121287;23;20364;-84
2021/04/24 10:39:21;;;;;;;19.27;3.53;;;11.10;73.50;;;;;;6100842;23;20017;-83
2021/04/24 10:41:55;;;;;;;7.85;3.33;;;11.00;73.40;;;;;;6124447;23;20017;-84
2021/04/24 10:44:23;;;;;;;11.82;2.83;;;11.00;73.60;;;;;;6124533;23;20534;-83
2021/04/24 10:46:51;;;;;;;10.90;2.78;;;11.00;73.70;;;;;;6123568;23;20017;-84
2021/04/24 10:49:30;;;;;;;9.32;2.65;;;11.00;72.90;;;;;;6098386;23;20017;-84
2021/04/24 10:52:15;;;;;;;8.50;2.92;;;11.00;67.90;;;;;;6099301;23;20006;-84
2021/04/24 10:54:40;;;;;;;6.13;2.33;;;11.00;72.40;;;;;;6124197;23;20024;-85
2021/04/24 10:57:38;;;;;;;11.18;2.60;;;11.10;70.40;;;;;;6100458;23;20022;-85
2021/04/24 11:00:09;;;;;;;11.93;3.05;;;11.10;68.20;;;;;;6123803;23;20041;-85
2021/04/24 11:02:51;;;;;;;8.90;2.95;;;11.20;71.60;;;;;;6097789;23;20066;-85
2021/04/24 11:05:41;;;;;;;7.72;2.38;;;11.30;72.40;;;;;;6124343;23;20029;-84
2021/04/24 11:08:22;;;;;;;8.65;2.88;;;11.30;73.40;;;;;;6124130;23;20042;-84
2021/04/24 11:10:54;;;;;;;9.52;2.80;;;11.30;72.30;;;;;;6124172;23;20017;-83
2021/04/24 11:13:20;;;;;;;;;;;11.30;68.50;;;;;;6123452;23;20442;-84
2021/04/24 11:15:46;;;;;;;7.70;2.60;;;11.40;71.20;;;;;;6124087;23;19917;-82
2021/04/24 11:18:13;;;;;;;6.55;2.40;;;11.40;70.50;;;;;;6124080;23;20080;-84
2021/04/24 11:20:56;;;;;;;5.68;1.92;;;11.50;71.30;;;;;;6124637;23;20024;-84
2021/04/24 11:23:42;;;;;;;8.88;2.20;;;11.60;67.60;;;;;;6122363;23;20009;-84
2021/04/24 11:26:16;;;;;;;8.18;2.55;;;11.60;67.50;;;;;;6123942;23;20049;-83
2021/04/24 11:29:08;;;;;;;4.97;1.98;;;11.70;69.70;;;;;;6125187;23;20017;-84
2021/04/24 11:31:54;;;;;;;7.55;2.65;;;11.80;69.60;;;;;;6123349;23;20093;-83
2021/04/24 11:34:34;;;;;;;6.72;2.63;;;11.80;69.50;;;;;;6122457;23;20017;-83
2021/04/24 11:37:18;;;;;;;9.82;2.30;;;12.00;67.80;;;;;;6124554;23;20019;-83
2021/04/24 11:40:20;;;;;;;6.18;1.95;;;12.00;67.40;;;;;;6124282;23;20021;-83
2021/04/24 11:43:05;;;;;;;7.85;2.63;;;12.10;67.10;;;;;;6122977;23;20029;-83
2021/04/24 11:45:58;;;;;;;9.93;3.20;;;12.20;66.50;;;;;;6124747;23;21289;-83
2021/04/24 11:48:49;;;;;;;7.70;2.67;;;12.10;65.50;;;;;;6101737;23;20025;-83
2021/04/24 11:51:34;;;;;;;10.60;2.85;;;12.10;62.10;;;;;;6124487;23;20013;-83
2021/04/24 11:54:01;;;;;;;8.40;2.80;;;12.10;65.20;;;;;;6121548;23;20072;-84
2021/04/24 11:56:27;;;;;;;11.68;2.20;;;12.10;62.90;;;;;;6150218;23;20018;-83
2021/04/24 11:58:54;;;;;;;8.07;2.28;;;12.20;66.50;;;;;;6123827;23;20013;-83
2021/04/24 12:01:22;;;;;;;11.52;2.85;;;12.20;67.60;;;;;;6099304;23;20020;-83
2021/04/24 12:03:47;;;;;;;15.40;3.22;;;12.30;68.00;;;;;;6122500;23;20344;-84
2021/04/24 12:06:13;;;;;;;7.95;2.67;;;12.30;66.30;;;;;;6149706;23;20014;-84
2021/04/24 12:08:39;;;;;;;5.38;2.38;;;12.40;68.00;;;;;;6123979;23;20024;-84
2021/04/24 12:11:12;;;;;;;7.28;2.53;;;12.40;65.20;;;;;;6124168;23;20021;-84
2021/04/24 12:13:37;;;;;;;7.93;2.50;;;12.40;58.10;;;;;;6147594;23;20021;-83
2021/04/24 12:16:04;;;;;;;5.75;1.77;;;12.50;62.40;;;;;;6123784;23;20092;-83
2021/04/24 12:18:30;;;;;;;8.73;2.13;;;12.50;63.80;;;;;;6100085;23;20014;-83
2021/04/24 12:20:57;;;;;;;6.47;2.22;;;12.50;65.10;;;;;;6099236;23;20452;-83
2021/04/24 12:23:23;;;;;;;6.18;1.83;;;12.60;65.80;;;;;;6121795;23;20381;-84
2021/04/24 12:25:50;;;;;;;9.02;2.40;;;12.50;64.00;;;;;;6099175;23;20019;-83
2021/04/24 12:28:19;;;;;;;5.78;1.85;;;12.50;59.60;;;;;;6099779;23;20415;-84
2021/04/24 12:30:47;;;;;;;10.95;1.98;;;12.50;59.50;;;;;;6126901;23;20017;-84
2021/04/24 12:33:18;;;;;;;12.65;2.08;;;12.60;61.90;;;;;;6138498;23;20018;-83
2021/04/24 12:36:03;;;;;;;5.47;1.38;;;12.60;62.80;;;;;;6134862;23;20037;-84
2021/04/24 12:38:30;;;;;;;5.68;1.60;;;12.60;57.70;;;;;;6150458;23;20099;-84
2021/04/24 12:40:58;;;;;;;5.80;1.75;;;12.60;61.80;;;;;;6124038;23;20096;-84
2021/04/24 12:43:28;;;;;;;6.78;1.50;;;12.50;59.90;;;;;;6123296;23;20006;-83
2021/04/24 12:45:59;;;;;;;4.70;1.50;;;12.50;60.20;;;;;;6123157;23;20092;-83
2021/04/24 12:48:41;;;;;;;4.18;1.38;;;12.50;61.60;;;;;;6099450;23;20021;-84
2021/04/24 12:51:13;;;;;;;4.77;1.10;;;12.50;62.30;;;;;;6124399;23;20104;-83
2021/04/24 12:53:42;;;;;;;;;;;12.40;60.90;;;;;;6123050;23;20013;-84
2021/04/24 12:56:20;;;;;;;4.28;1.45;;;12.40;61.10;;;;;;6149415;23;19923;-84